createdAt,value
2023-08-16T00:02:43.917Z,100341.40
2023-08-16T00:06:32.216Z,100335.60
2023-08-16T00:10:16.357Z,100348.60
2023-08-16T00:14:05.662Z,100324.20
2023-08-16T00:18:08.180Z,100304.60
2023-08-16T00:21:56.603Z,100291.60
2023-08-16T00:25:45.834Z,100316.20
2023-08-16T00:29:24.327Z,100329.00
2023-08-16T00:33:11.812Z,100335.20
2023-08-16T00:36:55.819Z,100319.20
2023-08-16T00:40:47.207Z,100300.20
2023-08-16T00:44:40.096Z,100284.60
2023-08-16T00:48:28.450Z,100279.60
2023-08-16T00:52:15.937Z,100280.00
2023-08-16T00:56:21.814Z,100285.20
2023-08-16T01:00:07.816Z,100281.80
2023-08-16T01:03:56.446Z,100271.60
2023-08-16T01:07:49.329Z,100272.20
2023-08-16T01:11:43.197Z,100269.40
2023-08-16T01:19:29.001Z,100268.40
2023-08-16T01:23:44.789Z,100271.20
2023-08-16T01:31:58.822Z,100272.00
2023-08-16T01:35:51.813Z,100281.40
2023-08-16T01:39:42.203Z,100282.60
2023-08-16T01:43:28.618Z,100273.80
2023-08-16T01:47:16.964Z,100265.40
2023-08-16T01:51:05.396Z,100262.60
2023-08-16T01:55:02.090Z,100250.60
2023-08-16T01:58:51.280Z,100256.20
2023-08-16T02:02:37.981Z,100252.60
2023-08-16T02:06:24.709Z,100254.80
2023-08-16T02:10:13.138Z,100252.40
2023-08-16T02:14:01.978Z,100260.40
2023-08-16T02:17:57.971Z,100274.80
2023-08-16T02:21:29.148Z,100290.80
2023-08-16T02:25:17.942Z,100310.80
2023-08-16T02:29:01.869Z,100318.00
2023-08-16T02:32:53.647Z,100307.20
2023-08-16T02:36:43.021Z,100311.00
2023-08-16T02:40:31.000Z,100333.60
2023-08-16T02:44:19.113Z,100350.80
2023-08-16T02:48:00.199Z,100359.40
2023-08-16T02:51:48.306Z,100370.80
2023-08-16T02:55:36.562Z,100369.00
2023-08-16T02:59:24.705Z,100364.80
2023-08-16T03:03:12.985Z,100379.00
2023-08-16T03:06:58.929Z,100372.20
2023-08-16T03:10:48.313Z,100379.00
2023-08-16T03:14:35.296Z,100376.00
2023-08-16T03:18:17.058Z,100374.00
2023-08-16T03:22:01.124Z,100369.80
2023-08-16T03:25:49.632Z,100366.40
2023-08-16T03:29:48.355Z,100379.00
2023-08-16T03:37:41.393Z,100378.80
2023-08-16T03:45:36.745Z,100258.00
2023-08-16T03:49:42.732Z,100239.40
2023-08-16T03:53:31.701Z,100213.20
2023-08-16T03:56:59.547Z,100200.20
2023-08-16T04:05:11.432Z,100282.00
2023-08-16T04:09:04.489Z,100187.60
2023-08-16T04:12:52.970Z,100089.00
2023-08-16T04:16:29.548Z,100009.40
2023-08-16T04:20:20.040Z,99999.60
2023-08-16T04:28:13.632Z,100072.20
2023-08-16T04:31:53.996Z,100055.40
2023-08-16T04:35:56.759Z,100128.40
2023-08-16T04:39:45.016Z,100192.60
2023-08-16T04:47:45.841Z,100264.00
2023-08-16T04:51:56.073Z,100251.80
2023-08-16T04:55:47.577Z,100237.60
2023-08-16T04:59:35.720Z,100233.40
2023-08-16T05:03:25.000Z,100218.80
2023-08-16T05:07:13.487Z,100205.40
2023-08-16T05:11:02.476Z,100188.40
2023-08-16T05:14:52.565Z,100183.80
2023-08-16T05:22:15.344Z,100192.40
2023-08-16T05:26:24.261Z,100245.80
2023-08-16T05:30:13.508Z,100305.20
2023-08-16T05:34:07.770Z,100311.60
2023-08-16T05:37:52.452Z,100302.40
2023-08-16T05:41:41.716Z,100316.80
2023-08-16T05:45:24.099Z,100317.00
2023-08-16T05:53:18.352Z,100286.00
2023-08-16T05:57:04.170Z,100240.40
2023-08-16T06:00:59.225Z,100198.20
2023-08-16T06:04:58.326Z,100171.80
2023-08-16T06:08:49.864Z,100154.60
2023-08-16T06:12:37.252Z,100151.20
2023-08-16T06:16:27.135Z,100138.80
2023-08-16T06:24:23.401Z,100207.40
2023-08-16T06:32:21.931Z,100263.80
2023-08-16T06:36:00.617Z,100301.40
2023-08-16T06:40:10.477Z,100347.00
2023-08-16T06:44:04.759Z,100350.80
2023-08-16T06:48:07.920Z,100353.00
2023-08-16T06:51:56.617Z,100355.60
2023-08-16T07:11:30.044Z,100392.80
2023-08-16T07:15:25.768Z,100382.60
2023-08-16T07:19:30.430Z,100383.60
2023-08-16T07:27:41.238Z,100340.80
2023-08-16T07:31:33.156Z,100314.00
2023-08-16T07:35:43.571Z,100286.60
2023-08-16T07:47:47.898Z,100362.60
2023-08-16T07:56:13.171Z,100405.20
2023-08-16T08:00:33.640Z,100411.00
2023-08-16T08:19:06.955Z,100456.80
2023-08-16T08:22:35.995Z,100447.40
2023-08-16T08:27:26.659Z,100434.80
2023-08-16T08:31:19.381Z,100421.60
2023-08-16T08:39:39.278Z,100376.80
2023-08-16T08:47:35.213Z,100316.60
2023-08-16T09:04:32.927Z,100183.60
2023-08-16T09:17:33.209Z,100214.80
2023-08-16T09:21:49.562Z,100226.00
2023-08-16T09:42:27.227Z,100279.80
2023-08-16T09:47:03.492Z,100297.00
2023-08-16T09:54:52.991Z,100317.60
2023-08-16T10:08:11.235Z,100306.00
2023-08-16T10:12:04.949Z,100316.80
2023-08-16T10:15:54.996Z,100328.20
2023-08-16T10:19:54.219Z,100332.60
2023-08-16T10:32:44.823Z,100323.00
2023-08-16T10:41:28.696Z,100313.00
2023-08-16T10:50:02.842Z,100310.60
2023-08-16T10:54:00.014Z,100306.20
2023-08-16T10:57:52.733Z,100305.60
2023-08-16T11:02:11.005Z,100302.20
2023-08-16T11:10:49.187Z,100290.00
2023-08-16T11:14:38.772Z,100283.60
2023-08-16T11:22:19.964Z,100275.80
2023-08-16T11:34:30.518Z,100253.80
2023-08-16T11:47:02.697Z,100268.60
2023-08-16T11:50:45.674Z,100266.60
2023-08-16T11:58:18.301Z,100276.60
2023-08-16T12:02:07.674Z,100265.60
2023-08-16T12:09:28.544Z,100258.40
2023-08-16T12:13:23.171Z,100259.60
2023-08-16T12:17:14.543Z,100252.40
2023-08-16T12:21:14.122Z,100248.60
2023-08-16T12:28:34.150Z,100259.80
2023-08-16T12:32:23.931Z,100252.80
2023-08-16T12:36:29.539Z,100248.80
2023-08-16T12:44:26.598Z,100252.20
2023-08-16T12:48:34.915Z,100245.20
2023-08-16T12:52:28.800Z,100251.00
2023-08-16T12:56:11.724Z,100252.40
2023-08-16T13:03:35.217Z,100248.20
2023-08-16T13:07:27.006Z,100248.80
2023-08-16T13:11:33.156Z,100245.60
2023-08-16T13:20:02.827Z,100242.40
2023-08-16T13:28:19.350Z,100247.00
2023-08-16T13:32:01.514Z,100245.80
2023-08-16T13:35:51.204Z,100243.40
2023-08-16T13:39:43.074Z,100245.60
2023-08-16T13:47:43.814Z,100247.40
2023-08-16T13:51:10.947Z,100242.80
2023-08-16T13:55:18.664Z,100243.40
2023-08-16T14:03:52.274Z,100244.60
2023-08-16T14:07:48.463Z,100238.40
2023-08-16T14:47:03.434Z,100232.80
2023-08-16T14:51:13.668Z,100233.60
2023-08-16T15:12:06.675Z,100240.40
2023-08-16T15:24:46.247Z,100238.00
2023-08-16T15:32:47.192Z,100233.00
2023-08-16T15:49:11.186Z,100217.00
2023-08-16T16:01:07.216Z,100218.60
2023-08-16T16:04:35.978Z,100221.00
2023-08-16T16:08:40.706Z,100224.60
2023-08-16T16:17:33.981Z,100233.00
2023-08-16T16:21:02.312Z,100237.20
2023-08-16T16:25:07.477Z,100237.40
2023-08-16T16:29:00.735Z,100234.20
2023-08-16T16:33:32.430Z,100235.00
2023-08-16T16:37:21.193Z,100240.80
2023-08-16T16:57:38.404Z,100243.00
2023-08-16T17:05:35.270Z,100243.80
2023-08-16T17:13:42.555Z,100240.20
2023-08-16T17:17:29.304Z,100245.60
2023-08-16T17:21:17.777Z,100246.60
2023-08-16T17:25:04.171Z,100250.60
2023-08-16T17:32:53.857Z,100253.20
2023-08-16T17:41:20.470Z,100264.80
2023-08-16T17:45:21.846Z,100263.60
2023-08-16T17:49:58.677Z,100269.60
2023-08-16T17:54:03.391Z,100273.60
2023-08-16T17:58:08.151Z,100278.00
2023-08-16T18:02:12.423Z,100281.60
2023-08-16T18:10:21.731Z,100284.60
2023-08-16T18:14:11.613Z,100286.40
2023-08-16T18:18:06.173Z,100287.60
2023-08-16T18:30:28.240Z,100300.20
2023-08-16T18:34:09.441Z,100300.80
2023-08-16T18:37:53.689Z,100307.00
2023-08-16T18:41:48.185Z,100309.40
2023-08-16T18:45:29.871Z,100305.20
2023-08-16T18:49:27.705Z,100304.60
2023-08-16T18:53:21.026Z,100307.00
2023-08-16T18:56:59.884Z,100309.40
2023-08-16T19:00:54.709Z,100308.20
2023-08-16T19:04:43.078Z,100305.40
2023-08-16T19:08:20.744Z,100303.60
2023-08-16T19:12:05.196Z,100297.20
2023-08-16T19:15:54.041Z,100301.00
2023-08-16T19:19:45.747Z,100306.20
2023-08-16T19:23:34.668Z,100311.80
2023-08-16T19:27:16.411Z,100308.00
2023-08-16T19:31:05.696Z,100302.60
2023-08-16T19:34:55.150Z,100303.20
2023-08-16T19:38:42.336Z,100300.60
2023-08-16T19:42:31.261Z,100298.40
2023-08-16T19:46:32.755Z,100299.00
2023-08-16T19:50:02.330Z,100306.40
2023-08-16T19:53:45.765Z,100308.60
2023-08-16T19:57:38.583Z,100312.40
2023-08-16T20:01:43.827Z,100308.40
2023-08-16T20:05:34.302Z,100305.00
2023-08-16T20:09:25.143Z,100304.60
2023-08-16T20:13:13.695Z,100299.40
2023-08-16T20:17:02.375Z,100297.60
2023-08-16T20:20:38.782Z,100295.60
2023-08-16T20:24:26.834Z,100288.40
2023-08-16T20:28:07.997Z,100290.60
2023-08-16T20:31:57.332Z,100287.60
2023-08-16T20:35:52.045Z,100286.00
2023-08-16T20:39:40.403Z,100287.00
2023-08-16T20:43:33.500Z,100285.20
2023-08-16T20:51:02.423Z,100291.00
2023-08-16T20:54:35.608Z,100288.20
2023-08-16T20:58:24.866Z,100285.80
2023-08-16T21:02:12.431Z,100283.40
2023-08-16T21:05:57.907Z,100287.60
2023-08-16T21:09:49.176Z,100281.20
2023-08-16T21:13:36.702Z,100283.40
2023-08-16T21:17:16.416Z,100281.60
2023-08-16T21:21:04.557Z,100276.80
2023-08-16T21:24:39.674Z,100273.60
2023-08-16T21:28:28.944Z,100273.60
2023-08-16T21:32:16.905Z,100274.40
2023-08-16T21:36:03.626Z,100273.40
2023-08-16T21:39:50.487Z,100273.60
2023-08-16T21:43:40.161Z,100276.20
2023-08-16T21:47:29.663Z,100275.40
2023-08-16T21:50:51.318Z,100280.00
2023-08-16T21:54:40.099Z,100272.80
2023-08-16T21:58:26.562Z,100267.40
2023-08-16T22:02:15.191Z,100263.20
2023-08-16T22:05:56.704Z,100262.60
2023-08-16T22:09:46.932Z,100261.40
2023-08-16T22:13:35.300Z,100259.60
2023-08-16T22:17:23.048Z,100255.60
2023-08-16T22:21:12.442Z,100253.20
2023-08-16T22:29:08.139Z,100248.60
2023-08-16T22:32:55.092Z,100249.60
2023-08-16T22:36:44.600Z,100247.60
2023-08-16T22:40:35.646Z,100249.60
2023-08-16T22:44:23.973Z,100250.80
2023-08-16T22:48:14.081Z,100251.20
2023-08-16T22:51:53.755Z,100244.80
2023-08-16T22:55:41.996Z,100245.80
2023-08-16T22:59:30.777Z,100242.40
2023-08-16T23:03:18.983Z,100244.80
2023-08-16T23:07:08.058Z,100243.60
2023-08-16T23:10:56.261Z,100241.40
2023-08-16T23:14:44.890Z,100245.60
2023-08-16T23:21:34.293Z,100242.20
2023-08-16T23:25:28.537Z,100241.00
2023-08-16T23:29:17.086Z,100235.00
2023-08-16T23:33:07.268Z,100235.80
2023-08-16T23:40:19.855Z,100226.20
2023-08-16T23:44:07.995Z,100226.40
2023-08-16T23:47:57.036Z,100230.80
2023-08-16T23:51:30.514Z,100233.40
2023-08-16T23:55:19.367Z,100233.60
2023-08-16T23:59:08.339Z,100233.00
